Maple Valley, Ohio
Current Conditions -  °F | °C
As of 2:54 PM on Sunday 25 Jan 2015 (Local Time) from KAKR Reporting Station
Light Snow Light Snow  
Wind Chill: 21°   Ceiling: 1300
Heat Index: 30°   Visibility: 1.5mi
Dew Point: 24°   Wind: 12mph
Humidity: 79%   Direction: 50°NE
Pressure: 29.78"   Gusts: NA
Location:  41.0789°N, 81.5822°W
Report Text: KAKR 251954Z AUTO 05010KT 1 1/2SM -SN OVC013 M01/M04 A2978 RMK AO2 SLP093 P0000 T10111044 $
Loading
Personal Weather Stations






























Interactive Weather Map New forecast layout! Learn more

10-Day Weather Forecast

Advertisements
Track Severe Weather on mobile